Time;durP1;ratioP1;P1;durP2;ratioP2;P2;SDS_P1;SDS_P2;PMS_P1;PMS_P2;Temp;Humidity;BMP_temperature;BMP_pressure;BME280_temperature;BME280_humidity;BME280_pressure;Samples;Min_cycle;Max_cycle;Signal;HPM_P1;HPM_P2
2022/06/03 00:02:56;;;;;;;3.30;2.17;;;15.30;91.30;;;;;;5105341;28;20716;-84
2022/06/03 00:05:40;;;;;;;2.30;1.87;;;15.30;91.70;;;;;;5081519;28;20613;-82
2022/06/03 00:08:34;;;;;;;2.77;1.80;;;15.30;91.60;;;;;;5088683;28;20659;-85
2022/06/03 00:11:28;;;;;;;2.03;1.80;;;15.30;92.20;;;;;;5077946;28;20724;-84
2022/06/03 00:14:36;;;;;;;2.20;2.00;;;15.20;92.20;;;;;;5063456;28;20673;-85
2022/06/03 00:17:13;;;;;;;2.30;2.20;;;15.20;92.80;;;;;;5089210;28;20662;-86
2022/06/03 00:19:59;;;;;;;3.10;2.10;;;15.10;93.00;;;;;;5089009;28;20651;-85
2022/06/03 00:22:50;;;;;;;1.73;1.63;;;15.10;92.70;;;;;;5091811;28;20693;-86
2022/06/03 00:25:36;;;;;;;1.73;1.63;;;15.10;92.00;;;;;;5088238;28;20673;-85
2022/06/03 00:28:28;;;;;;;2.03;1.93;;;14.90;91.50;;;;;;5088681;28;20727;-86
2022/06/03 00:31:09;;;;;;;1.87;1.73;;;15.00;91.70;;;;;;5088200;28;20987;-86
2022/06/03 00:33:58;;;;;;;2.80;2.33;;;15.00;91.90;;;;;;5088668;28;20624;-85
2022/06/03 00:36:50;;;;;;;1.67;1.57;;;15.00;92.10;;;;;;5091939;28;20618;-86
2022/06/03 00:39:39;;;;;;;1.90;1.17;;;15.00;92.60;;;;;;5108022;28;20651;-84
2022/06/03 00:42:29;;;;;;;2.20;2.00;;;14.90;92.90;;;;;;5108474;28;20657;-86
2022/06/03 00:45:08;;;;;;;2.27;2.07;;;14.90;92.80;;;;;;5092007;28;20622;-84
2022/06/03 00:47:52;;;;;;;3.03;1.70;;;14.80;92.30;;;;;;5099903;28;20615;-85
2022/06/03 00:50:50;;;;;;;2.57;2.37;;;14.80;92.40;;;;;;5097956;28;20615;-85
2022/06/03 00:53:41;;;;;;;1.73;1.47;;;14.70;93.00;;;;;;5096975;28;20620;-85
2022/06/03 00:56:39;;;;;;;1.70;1.60;;;14.60;93.70;;;;;;5104837;28;20624;-84
2022/06/03 00:59:30;;;;;;;1.73;1.63;;;14.60;94.30;;;;;;5105926;27;20648;-86
2022/06/03 01:02:14;;;;;;;2.07;1.80;;;14.60;94.80;;;;;;5109742;28;20672;-85
2022/06/03 01:05:03;;;;;;;2.10;1.90;;;14.40;95.30;;;;;;5111962;28;20611;-85
2022/06/03 01:07:42;;;;;;;2.47;2.30;;;14.40;95.40;;;;;;5093603;28;21199;-86
2022/06/03 01:10:27;;;;;;;2.20;2.00;;;14.30;95.90;;;;;;5106580;28;20626;-85
2022/06/03 01:13:23;;;;;;;1.80;1.70;;;14.20;96.00;;;;;;5101347;28;20612;-86
2022/06/03 01:15:58;;;;;;;1.60;1.50;;;14.20;96.40;;;;;;5094932;28;20624;-85
2022/06/03 01:18:42;;;;;;;2.03;1.83;;;14.20;96.60;;;;;;5104780;28;21228;-86
2022/06/03 01:21:20;;;;;;;2.20;2.00;;;14.30;96.30;;;;;;5105577;28;20622;-85
2022/06/03 01:24:25;;;;;;;2.60;2.40;;;14.30;96.10;;;;;;5098600;28;20624;-83
2022/06/03 01:27:25;;;;;;;2.33;2.13;;;14.20;96.50;;;;;;5087007;28;20676;-85
2022/06/03 01:30:28;;;;;;;2.10;1.80;;;14.30;96.30;;;;;;5097929;28;20684;-84
2022/06/03 01:33:26;;;;;;;2.97;2.70;;;14.40;95.60;;;;;;5102403;28;20631;-85
2022/06/03 01:36:38;;;;;;;1.50;1.20;;;14.40;96.20;;;;;;5092062;28;20707;-86
2022/06/03 01:39:33;;;;;;;2.20;1.90;;;14.30;96.60;;;;;;5059633;28;20702;-85
2022/06/03 01:42:32;;;;;;;1.93;1.80;;;14.30;96.60;;;;;;5100812;28;20631;-85
2022/06/03 01:45:29;;;;;;;2.70;2.30;;;14.20;97.10;;;;;;5091768;28;20695;-86
2022/06/03 01:48:09;;;;;;;1.87;1.77;;;14.20;97.50;;;;;;5096666;28;20612;-84
2022/06/03 01:50:58;;;;;;;2.40;2.20;;;14.10;97.70;;;;;;5105010;28;20616;-84
2022/06/03 01:53:56;;;;;;;2.40;2.10;;;14.10;97.80;;;;;;5099519;28;20979;-85
2022/06/03 01:56:58;;;;;;;2.37;2.17;;;14.10;97.50;;;;;;5111837;28;20611;-86
2022/06/03 02:00:05;;;;;;;1.90;1.80;;;14.10;96.60;;;;;;5096084;28;21004;-84
2022/06/03 02:03:12;;;;;;;2.37;1.80;;;14.00;96.80;;;;;;5090634;28;21163;-85
2022/06/03 02:06:16;;;;;;;3.80;2.93;;;14.00;97.20;;;;;;5090038;28;20663;-84
2022/06/03 02:09:09;;;;;;;1.97;1.77;;;14.00;97.80;;;;;;5087788;28;20662;-86
2022/06/03 02:11:58;;;;;;;2.20;1.70;;;14.00;97.50;;;;;;5092597;28;20715;-85
2022/06/03 02:15:09;;;;;;;1.60;1.50;;;14.00;97.10;;;;;;5098233;28;20614;-85
2022/06/03 02:18:08;;;;;;;2.13;2.00;;;14.00;97.00;;;;;;5093971;27;20704;-85
2022/06/03 02:21:08;;;;;;;2.20;1.93;;;14.00;97.40;;;;;;5100084;28;21181;-85
2022/06/03 02:24:07;;;;;;;2.60;2.40;;;14.00;97.30;;;;;;5096221;28;21239;-84
2022/06/03 02:27:20;;;;;;;1.53;1.43;;;14.00;96.70;;;;;;5092538;28;20614;-86
2022/06/03 02:30:27;;;;;;;1.90;1.60;;;14.00;96.80;;;;;;5094231;28;20757;-85
2022/06/03 02:33:31;;;;;;;2.30;2.10;;;14.00;97.50;;;;;;5092585;28;20619;-86
2022/06/03 02:36:24;;;;;;;2.83;2.27;;;14.00;97.50;;;;;;5090897;28;20636;-84
2022/06/03 02:39:02;;;;;;;1.80;1.70;;;13.90;97.50;;;;;;5090074;28;20654;-85
2022/06/03 02:41:53;;;;;;;3.30;2.30;;;14.00;97.40;;;;;;5105063;28;20619;-83
2022/06/03 02:45:01;;;;;;;3.20;2.90;;;14.00;97.90;;;;;;5090195;28;20620;-85
2022/06/03 02:48:02;;;;;;;3.07;2.70;;;13.90;98.70;;;;;;5085892;28;20636;-85
2022/06/03 02:50:44;;;;;;;2.77;2.47;;;13.90;98.80;;;;;;5091676;28;20633;-85
2022/06/03 02:54:08;;;;;;;3.20;2.90;;;13.90;98.10;;;;;;5097685;28;20615;-85
2022/06/03 02:56:56;;;;;;;2.00;1.90;;;14.10;98.00;;;;;;5026978;28;20630;-87
2022/06/03 02:59:52;;;;;;;2.70;2.50;;;14.10;97.40;;;;;;5028607;28;20773;-84
2022/06/03 03:02:41;;;;;;;2.23;2.10;;;14.10;97.50;;;;;;5099980;28;20722;-85
2022/06/03 03:05:22;;;;;;;2.10;2.00;;;14.10;97.40;;;;;;5083369;28;21057;-84
2022/06/03 03:08:22;;;;;;;2.73;2.53;;;14.10;97.30;;;;;;5090244;28;20670;-85
2022/06/03 03:11:14;;;;;;;1.27;1.17;;;14.00;98.10;;;;;;5102452;28;20689;-86
2022/06/03 03:14:33;;;;;;;2.20;1.80;;;14.10;99.90;;;;;;5103835;28;20684;-84
2022/06/03 03:17:21;;;;;;;1.87;1.77;;;13.90;99.00;;;;;;5078374;28;20743;-82
2022/06/03 03:20:32;;;;;;;2.90;2.17;;;13.80;99.40;;;;;;5089780;28;20680;-84
2022/06/03 03:23:24;;;;;;;1.83;1.73;;;13.90;99.50;;;;;;5068052;28;20793;-85
2022/06/03 03:26:01;;;;;;;2.97;2.70;;;13.90;98.90;;;;;;5089442;28;20608;-84
2022/06/03 03:29:07;;;;;;;2.83;2.53;;;14.00;99.40;;;;;;5089703;28;20628;-85
2022/06/03 03:31:52;;;;;;;2.70;2.50;;;13.90;98.90;;;;;;5104933;28;20730;-85
2022/06/03 03:34:30;;;;;;;2.20;2.10;;;13.90;98.80;;;;;;5100176;28;21439;-84
2022/06/03 03:37:36;;;;;;;3.43;2.10;;;13.90;99.90;;;;;;5098243;28;20708;-83
2022/06/03 03:40:42;;;;;;;3.23;2.67;;;13.80;99.90;;;;;;5089052;28;20648;-85
2022/06/03 03:43:39;;;;;;;3.03;2.50;;;13.80;99.90;;;;;;5092637;28;20636;-84
2022/06/03 03:46:58;;;;;;;2.10;1.97;;;13.80;99.90;;;;;;5089601;28;20716;-85
2022/06/03 03:49:51;;;;;;;2.70;2.50;;;13.80;99.90;;;;;;5094926;28;20651;-84
2022/06/03 03:52:44;;;;;;;3.27;2.40;;;13.80;99.90;;;;;;5060081;28;20717;-85
2022/06/03 03:55:42;;;;;;;2.73;2.53;;;13.70;99.90;;;;;;5096671;28;20620;-84
2022/06/03 03:58:48;;;;;;;2.33;2.17;;;13.70;99.90;;;;;;5101965;28;21258;-85
2022/06/03 04:01:54;;;;;;;3.03;2.70;;;13.80;99.90;;;;;;5107657;28;20630;-84
2022/06/03 04:04:58;;;;;;;3.37;3.07;;;13.80;99.90;;;;;;5098428;28;20628;-84
2022/06/03 04:08:11;;;;;;;2.63;2.43;;;13.90;99.90;;;;;;5090037;28;20608;-84
2022/06/03 04:11:10;;;;;;;3.50;2.90;;;14.00;99.90;;;;;;5068817;28;20743;-84
2022/06/03 04:14:18;;;;;;;2.40;2.20;;;14.00;99.90;;;;;;5096665;28;20683;-83
2022/06/03 04:17:11;;;;;;;2.97;2.47;;;14.00;99.90;;;;;;5099824;28;21567;-86
2022/06/03 04:20:19;;;;;;;1.97;1.80;;;14.10;99.90;;;;;;5090928;28;21230;-85
2022/06/03 04:23:22;;;;;;;2.77;2.57;;;14.10;99.90;;;;;;5101047;27;20635;-84
2022/06/03 04:26:25;;;;;;;2.97;2.77;;;14.20;99.90;;;;;;5088722;28;20656;-84
2022/06/03 04:29:00;;;;;;;2.23;2.00;;;14.30;99.90;;;;;;5094736;28;20725;-85
2022/06/03 04:32:04;;;;;;;5.10;2.80;;;14.30;99.40;;;;;;5107278;28;20623;-85
2022/06/03 04:35:02;;;;;;;1.90;1.80;;;14.40;99.50;;;;;;5105074;28;20627;-86
2022/06/03 04:38:05;;;;;;;2.83;2.53;;;14.50;99.40;;;;;;5100486;28;21203;-85
2022/06/03 04:41:03;;;;;;;2.33;2.17;;;14.50;99.40;;;;;;5108023;28;20655;-84
2022/06/03 04:44:09;;;;;;;2.03;1.93;;;14.70;99.00;;;;;;5107969;28;21211;-82
2022/06/03 04:47:22;;;;;;;2.97;2.63;;;14.90;98.60;;;;;;5107132;28;20619;-84
2022/06/03 04:50:19;;;;;;;2.57;2.20;;;15.00;97.70;;;;;;5107112;28;21316;-83
2022/06/03 04:53:20;;;;;;;2.93;2.30;;;15.10;97.20;;;;;;5088253;28;20636;-84
2022/06/03 04:56:23;;;;;;;3.00;2.70;;;15.20;96.80;;;;;;5088897;28;20754;-84
2022/06/03 04:59:25;;;;;;;4.03;2.73;;;15.30;96.70;;;;;;5087672;28;20652;-85
2022/06/03 05:02:43;;;;;;;2.37;2.17;;;15.40;96.50;;;;;;5107803;28;20672;-84
2022/06/03 05:05:44;;;;;;;2.13;1.93;;;15.60;96.30;;;;;;5104328;28;20727;-84
2022/06/03 05:08:52;;;;;;;2.93;2.37;;;15.70;95.60;;;;;;5107938;28;21164;-85
2022/06/03 05:11:56;;;;;;;3.30;2.37;;;15.80;95.50;;;;;;5094698;28;20628;-84
2022/06/03 05:14:54;;;;;;;3.40;3.10;;;16.00;95.30;;;;;;5103801;28;20634;-84
2022/06/03 05:17:44;;;;;;;3.60;2.63;;;16.10;95.00;;;;;;5080332;28;20707;-84
2022/06/03 05:20:52;;;;;;;2.90;2.50;;;16.10;94.90;;;;;;5104733;28;20656;-83
2022/06/03 05:23:37;;;;;;;2.67;2.47;;;16.20;94.90;;;;;;5069323;28;20639;-84
2022/06/03 05:26:27;;;;;;;4.10;2.87;;;16.40;95.00;;;;;;5108746;28;20624;-84
2022/06/03 05:29:37;;;;;;;4.97;4.47;;;16.40;95.10;;;;;;5087606;28;20763;-85
2022/06/03 05:32:51;;;;;;;2.70;2.50;;;16.50;94.50;;;;;;5095049;28;20289;-85
2022/06/03 05:35:40;;;;;;;3.10;2.80;;;16.50;94.40;;;;;;5075953;27;20720;-84
2022/06/03 05:38:30;;;;;;;2.60;2.00;;;16.50;94.90;;;;;;5108630;28;20627;-86
2022/06/03 05:44:13;;;;;;;2.10;1.90;;;16.70;94.60;;;;;;5112378;28;21088;-84
2022/06/03 05:46:49;;;;;;;2.50;2.30;;;16.90;94.70;;;;;;5113349;28;20716;-85
2022/06/03 05:49:37;;;;;;;2.90;2.50;;;16.90;94.40;;;;;;5110597;28;20670;-85
2022/06/03 05:52:26;;;;;;;2.57;2.37;;;17.10;94.40;;;;;;5093542;28;20616;-83
2022/06/03 05:55:05;;;;;;;2.60;2.40;;;17.20;93.90;;;;;;5092243;28;20669;-84
2022/06/03 05:57:40;;;;;;;2.97;2.20;;;17.20;94.10;;;;;;5103399;28;20746;-86
2022/06/03 06:00:43;;;;;;;3.63;2.70;;;17.30;94.40;;;;;;5105628;28;20798;-84
2022/06/03 06:03:22;;;;;;;2.60;2.40;;;17.30;94.30;;;;;;5091603;28;20632;-85
2022/06/03 06:05:55;;;;;;;3.07;2.80;;;17.30;94.50;;;;;;5092912;28;21194;-84
2022/06/03 06:08:30;;;;;;;3.27;2.50;;;17.30;94.70;;;;;;5092791;28;20650;-84
2022/06/03 06:11:03;;;;;;;3.23;2.53;;;17.60;94.50;;;;;;5106275;28;20615;-84
2022/06/03 06:14:05;;;;;;;2.37;2.00;;;17.70;93.90;;;;;;5111097;28;20619;-85
2022/06/03 06:16:38;;;;;;;3.20;2.90;;;17.80;93.60;;;;;;5101674;28;20679;-85
2022/06/03 06:19:10;;;;;;;2.93;2.63;;;17.90;93.60;;;;;;5092011;28;20620;-86
2022/06/03 06:21:59;;;;;;;3.27;2.97;;;17.90;93.80;;;;;;5092152;28;20970;-84
2022/06/03 06:24:45;;;;;;;2.83;2.63;;;17.90;93.60;;;;;;5102314;28;20728;-87
2022/06/03 06:27:57;;;;;;;2.57;2.37;;;18.10;93.20;;;;;;5110356;27;20690;-83
2022/06/03 06:30:53;;;;;;;2.57;2.37;;;18.20;93.30;;;;;;5085856;28;20636;-86
2022/06/03 06:34:03;;;;;;;2.23;2.03;;;18.30;93.10;;;;;;5091502;28;20632;-85
2022/06/03 06:37:08;;;;;;;3.17;2.87;;;18.70;93.00;;;;;;5107964;28;20685;-86
2022/06/03 06:40:06;;;;;;;3.43;3.00;;;18.40;92.80;;;;;;5093088;28;21386;-84
2022/06/03 06:42:47;;;;;;;2.10;2.00;;;18.50;92.50;;;;;;5091347;28;20628;-86
2022/06/03 06:45:27;;;;;;;2.93;2.73;;;18.60;92.30;;;;;;5090694;28;20632;-85
2022/06/03 06:48:03;;;;;;;2.47;2.27;;;18.70;92.40;;;;;;5102797;28;20638;-85
2022/06/03 06:50:38;;;;;;;2.63;2.43;;;18.80;92.60;;;;;;5096284;28;20624;-83
2022/06/03 06:53:10;;;;;;;5.37;2.13;;;18.90;92.00;;;;;;5095996;28;20634;-85
2022/06/03 06:55:51;;;;;;;3.40;3.20;;;19.00;92.10;;;;;;5093343;28;20731;-84
2022/06/03 06:58:42;;;;;;;3.00;2.60;;;19.10;91.70;;;;;;5090443;28;20682;-85
2022/06/03 07:01:11;;;;;;;2.83;2.60;;;19.20;91.90;;;;;;5101989;28;20704;-86
2022/06/03 07:03:51;;;;;;;2.63;2.43;;;19.40;92.00;;;;;;5097376;28;20647;-85
2022/06/03 07:06:29;;;;;;;2.90;2.13;;;19.50;91.90;;;;;;5108265;28;20722;-85
2022/06/03 07:09:18;;;;;;;2.20;2.00;;;19.70;91.00;;;;;;5106383;28;20624;-84
2022/06/03 07:11:53;;;;;;;2.30;2.10;;;19.80;90.30;;;;;;5099454;28;21136;-85
2022/06/03 07:14:25;;;;;;;2.57;2.30;;;19.80;90.10;;;;;;5108613;28;20615;-84
2022/06/03 07:19:54;;;;;;;2.90;2.53;;;20.00;90.80;;;;;;5098959;28;20652;-86
2022/06/03 07:22:29;;;;;;;2.27;2.10;;;20.20;90.30;;;;;;5097927;28;20619;-85
2022/06/03 07:25:02;;;;;;;2.43;2.23;;;20.40;90.00;;;;;;5108963;28;20638;-85
2022/06/03 07:27:39;;;;;;;2.37;1.80;;;20.40;90.00;;;;;;5094702;28;20669;-85
2022/06/03 07:30:11;;;;;;;2.20;2.10;;;20.60;90.20;;;;;;5094693;28;20907;-85
2022/06/03 07:32:43;;;;;;;2.60;2.40;;;20.70;90.10;;;;;;5106680;28;20632;-85
2022/06/03 07:35:20;;;;;;;2.23;2.07;;;20.80;88.90;;;;;;5096193;28;20649;-86
2022/06/03 07:37:53;;;;;;;2.93;2.60;;;21.10;87.40;;;;;;5100907;28;20991;-85
2022/06/03 07:40:24;;;;;;;3.70;2.67;;;21.30;86.10;;;;;;5096566;28;20654;-86
2022/06/03 07:42:58;;;;;;;2.70;2.50;;;21.30;86.60;;;;;;5091697;28;20620;-85
2022/06/03 07:45:39;;;;;;;2.60;2.40;;;21.30;85.90;;;;;;5093144;28;20629;-84
2022/06/03 07:48:10;;;;;;;2.40;2.20;;;21.40;85.50;;;;;;5107776;28;20730;-85
2022/06/03 07:50:46;;;;;;;2.43;2.20;;;21.40;87.50;;;;;;5097170;28;20647;-86
2022/06/03 07:53:19;;;;;;;3.47;2.40;;;21.50;86.90;;;;;;5092180;28;20616;-85
2022/06/03 07:55:53;;;;;;;2.77;2.57;;;21.70;85.60;;;;;;5091258;28;20616;-84
2022/06/03 07:58:23;;;;;;;3.10;2.20;;;21.70;86.10;;;;;;5105548;28;20620;-84
2022/06/03 08:00:50;;;;;;;2.93;2.63;;;21.80;85.40;;;;;;5105130;28;20663;-86
2022/06/03 08:03:20;;;;;;;2.83;2.63;;;21.80;86.30;;;;;;5101687;28;20655;-87
2022/06/03 08:05:49;;;;;;;2.23;2.10;;;21.90;85.20;;;;;;5098993;28;20621;-87
2022/06/03 08:11:12;;;;;;;3.30;2.63;;;22.00;84.40;;;;;;5110235;28;20619;-85
2022/06/03 08:13:48;;;;;;;2.80;2.60;;;22.20;85.90;;;;;;5104367;28;20700;-87
2022/06/03 08:16:24;;;;;;;2.30;2.10;;;22.30;84.60;;;;;;5095224;28;20672;-86
2022/06/03 08:18:52;;;;;;;2.57;2.37;;;22.40;84.90;;;;;;5090618;28;20612;-86
2022/06/03 08:21:24;;;;;;;3.10;2.73;;;22.40;84.00;;;;;;5108814;28;20661;-86
2022/06/03 08:23:54;;;;;;;1.97;1.87;;;22.50;83.80;;;;;;5107350;28;20727;-86
2022/06/03 08:26:24;;;;;;;2.07;1.97;;;22.70;84.30;;;;;;5106209;28;21192;-87
2022/06/03 08:28:56;;;;;;;2.90;2.00;;;22.80;83.00;;;;;;5108831;28;21249;-87
2022/06/03 08:31:25;;;;;;;2.57;2.37;;;22.90;83.70;;;;;;5110320;28;20723;-85
2022/06/03 08:33:54;;;;;;;2.43;2.23;;;23.10;83.10;;;;;;5103982;28;20751;-86
2022/06/03 08:36:24;;;;;;;2.67;2.43;;;23.10;82.30;;;;;;5110153;28;21237;-86
2022/06/03 08:38:57;;;;;;;2.53;2.33;;;23.20;80.70;;;;;;5088745;28;20659;-86
2022/06/03 08:41:50;;;;;;;2.10;2.00;;;22.90;81.60;;;;;;5105163;28;20648;-86
2022/06/03 08:44:33;;;;;;;2.50;2.30;;;23.00;82.50;;;;;;5091379;28;20682;-85
2022/06/03 08:47:06;;;;;;;2.10;2.00;;;23.20;81.10;;;;;;5099980;28;20627;-86
2022/06/03 08:49:45;;;;;;;2.47;2.27;;;23.40;80.40;;;;;;5111819;28;20637;-85
2022/06/03 08:52:14;;;;;;;2.63;2.43;;;23.60;79.30;;;;;;5100692;28;20711;-85
2022/06/03 08:54:50;;;;;;;2.73;2.53;;;23.70;80.40;;;;;;5110025;28;20607;-86
2022/06/03 08:57:22;;;;;;;2.30;2.20;;;23.80;79.00;;;;;;5092939;28;20620;-87
2022/06/03 08:59:56;;;;;;;2.47;2.27;;;23.90;78.80;;;;;;5101969;28;20977;-86
2022/06/03 09:02:30;;;;;;;2.57;2.37;;;23.80;78.50;;;;;;5097053;28;21173;-86
2022/06/03 09:05:02;;;;;;;2.20;2.00;;;23.90;77.80;;;;;;5096457;28;20648;-86
2022/06/03 09:07:39;;;;;;;2.90;2.30;;;24.00;78.70;;;;;;5092849;28;20627;-86
2022/06/03 09:10:17;;;;;;;2.60;2.40;;;24.10;80.30;;;;;;5102179;28;20624;-86
2022/06/03 09:12:52;;;;;;;2.43;2.23;;;24.20;81.50;;;;;;5101801;28;21204;-87
2022/06/03 09:15:23;;;;;;;2.23;2.10;;;24.40;81.00;;;;;;5111194;28;20625;-89
2022/06/03 09:17:56;;;;;;;3.27;3.07;;;24.60;79.30;;;;;;5109305;28;20717;-86
2022/06/03 09:20:25;;;;;;;2.30;2.10;;;24.70;76.40;;;;;;5113515;28;20711;-86
2022/06/03 09:23:00;;;;;;;2.03;1.93;;;24.80;76.80;;;;;;5100140;28;20619;-86
2022/06/03 09:25:31;;;;;;;2.50;2.30;;;24.80;74.90;;;;;;5094168;28;20682;-86
2022/06/03 09:28:00;;;;;;;2.50;2.30;;;24.90;76.00;;;;;;5113616;28;20623;-87
2022/06/03 09:30:31;;;;;;;2.97;2.07;;;25.00;74.60;;;;;;5111239;28;20694;-86
2022/06/03 09:33:02;;;;;;;2.73;2.53;;;25.00;74.30;;;;;;5104956;28;20670;-85
2022/06/03 09:35:30;;;;;;;2.20;2.00;;;25.10;73.80;;;;;;5102462;28;20735;-86
2022/06/03 09:38:01;;;;;;;2.50;2.30;;;25.30;74.50;;;;;;5106358;28;20608;-87
2022/06/03 09:40:32;;;;;;;3.23;2.53;;;25.50;73.50;;;;;;5103301;28;20697;-86
2022/06/03 09:43:06;;;;;;;2.57;2.37;;;25.50;74.70;;;;;;5108576;28;20650;-87
2022/06/03 09:45:34;;;;;;;2.40;2.23;;;25.60;75.20;;;;;;5095734;28;20612;-86
2022/06/03 09:48:04;;;;;;;2.27;2.10;;;25.70;76.40;;;;;;5095613;28;20648;-87
2022/06/03 09:50:32;;;;;;;4.83;2.90;;;25.90;71.30;;;;;;5100217;28;21213;-86
2022/06/03 09:53:04;;;;;;;2.57;2.30;;;26.00;71.50;;;;;;5104970;28;20662;-87
2022/06/03 09:55:36;;;;;;;2.53;2.33;;;26.00;72.20;;;;;;5108358;28;20655;-87
2022/06/03 09:58:05;;;;;;;2.07;1.97;;;26.20;70.00;;;;;;5101209;28;20649;-87
2022/06/03 10:00:40;;;;;;;2.63;2.43;;;26.20;76.70;;;;;;5096357;28;20669;-86
2022/06/03 10:03:07;;;;;;;2.80;2.60;;;;;;;;;;5095214;28;20632;-86
2022/06/03 10:05:34;;;;;;;2.33;2.13;;;26.40;70.60;;;;;;5097588;28;20616;-87
2022/06/03 10:08:04;;;;;;;2.90;2.40;;;26.50;68.30;;;;;;5105327;28;20623;-86
2022/06/03 10:13:18;;;;;;;2.43;2.30;;;26.80;67.60;;;;;;5099041;28;20719;-86
2022/06/03 10:15:50;;;;;;;2.63;2.43;;;26.90;68.50;;;;;;5107236;28;20730;-87
2022/06/03 10:18:29;;;;;;;2.43;2.23;;;27.00;67.00;;;;;;5094254;28;20632;-87
2022/06/03 10:20:58;;;;;;;2.30;2.20;;;27.20;65.30;;;;;;5109038;28;20655;-86
2022/06/03 10:23:28;;;;;;;2.50;2.30;;;27.30;65.50;;;;;;5113855;28;20692;-87
2022/06/03 10:26:01;;;;;;;2.07;1.90;;;27.50;64.80;;;;;;5092905;28;20643;-86
2022/06/03 10:28:34;;;;;;;2.80;2.60;;;27.80;64.80;;;;;;5102139;28;20648;-88
2022/06/03 10:31:06;;;;;;;2.70;2.50;;;27.80;62.90;;;;;;5103624;28;20622;-88
2022/06/03 10:33:33;;;;;;;2.33;2.20;;;28.10;63.30;;;;;;5108870;28;20638;-86
2022/06/03 10:36:03;;;;;;;3.10;2.80;;;28.30;65.30;;;;;;5112865;28;20611;-86
2022/06/03 10:38:32;;;;;;;2.77;2.60;;;28.30;65.50;;;;;;5114256;28;20646;-87
2022/06/03 10:41:06;;;;;;;2.23;2.00;;;28.10;64.60;;;;;;5112655;28;21491;-86
2022/06/03 10:43:36;;;;;;;2.57;2.37;;;28.20;64.90;;;;;;5108381;28;20722;-87
2022/06/03 10:46:15;;;;;;;2.20;2.00;;;28.10;63.50;;;;;;5107650;28;20634;-86
2022/06/03 10:48:43;;;;;;;2.70;2.50;;;28.40;60.80;;;;;;5113531;28;20655;-87
2022/06/03 10:51:18;;;;;;;2.90;2.60;;;28.50;59.40;;;;;;5113237;28;20643;-87
2022/06/03 11:02:32;;;;;;;2.30;2.20;;;28.40;58.70;;;;;;5075050;28;20668;-88
2022/06/03 11:05:13;;;;;;;2.10;1.90;;;28.50;59.70;;;;;;5094951;28;20621;-86
2022/06/03 11:07:41;;;;;;;2.30;2.10;;;28.60;60.20;;;;;;5102532;28;20627;-88
2022/06/03 11:10:12;;;;;;;2.57;2.37;;;28.40;59.10;;;;;;5102512;28;20648;-86
2022/06/03 11:12:42;;;;;;;1.97;1.73;;;28.50;58.30;;;;;;5112916;28;20758;-87
2022/06/03 11:15:31;;;;;;;2.10;2.00;;;28.20;58.70;;;;;;5093084;28;20609;-86
2022/06/03 11:17:59;;;;;;;1.87;1.77;;;27.80;60.80;;;;;;5101318;28;20739;-87
2022/06/03 11:20:35;;;;;;;2.00;1.90;;;27.60;58.90;;;;;;5102310;28;20659;-88
2022/06/03 11:23:03;;;;;;;2.03;1.87;;;27.40;60.60;;;;;;5106632;28;20628;-86
2022/06/03 11:25:32;;;;;;;1.73;1.63;;;27.00;63.10;;;;;;5092679;28;20719;-86
2022/06/03 11:28:02;;;;;;;2.23;2.10;;;26.50;63.80;;;;;;5093327;28;20681;-88
2022/06/03 11:30:35;;;;;;;2.20;2.00;;;26.30;63.60;;;;;;5106830;28;20630;-86
2022/06/03 11:33:05;;;;;;;2.10;2.00;;;26.20;67.80;;;;;;5106673;28;20719;-86
2022/06/03 11:35:41;;;;;;;1.80;1.70;;;26.00;62.20;;;;;;5106985;28;20655;-87
2022/06/03 11:38:12;;;;;;;1.83;1.73;;;26.00;64.90;;;;;;5112263;27;20615;-86
2022/06/03 11:40:43;;;;;;;2.50;2.30;;;25.90;66.20;;;;;;5111185;28;21192;-86
2022/06/03 11:43:18;;;;;;;1.93;1.60;;;25.70;65.30;;;;;;5096324;28;20616;-86
2022/06/03 11:45:53;;;;;;;1.83;1.70;;;25.70;67.20;;;;;;5091536;28;20612;-88
2022/06/03 11:48:35;;;;;;;2.40;2.00;;;25.60;68.30;;;;;;5103200;28;20615;-85
2022/06/03 11:51:02;;;;;;;1.70;1.60;;;;;;;;;;5105376;28;20630;-87
2022/06/03 11:53:32;;;;;;;2.63;2.27;;;25.70;67.10;;;;;;5107509;28;20719;-87
2022/06/03 11:56:02;;;;;;;2.43;2.20;;;25.70;66.90;;;;;;5091843;28;20686;-86
2022/06/03 11:58:46;;;;;;;2.80;2.00;;;25.80;68.80;;;;;;5108398;28;20631;-88
2022/06/03 12:01:19;;;;;;;2.73;2.27;;;25.80;68.80;;;;;;5107785;28;20752;-87
2022/06/03 12:03:55;;;;;;;2.40;2.30;;;25.60;69.70;;;;;;5111529;28;20727;-86
2022/06/03 12:06:26;;;;;;;2.43;2.23;;;25.70;71.30;;;;;;5104915;27;20730;-88
2022/06/03 12:08:57;;;;;;;2.60;2.40;;;25.50;71.50;;;;;;5111725;27;20616;-88
2022/06/03 12:14:31;;;;;;;2.67;2.47;;;25.70;71.70;;;;;;5106027;28;20761;-86
2022/06/03 12:17:01;;;;;;;3.13;2.90;;;25.70;71.40;;;;;;5102606;28;20676;-87
2022/06/03 12:19:43;;;;;;;2.50;2.30;;;25.70;72.00;;;;;;5098513;28;20629;-86
2022/06/03 12:22:35;;;;;;;2.63;2.43;;;25.60;72.00;;;;;;5092622;28;21229;-88
2022/06/03 12:25:06;;;;;;;1.90;1.80;;;25.80;72.20;;;;;;5094730;28;20621;-86
2022/06/03 12:27:36;;;;;;;2.83;2.60;;;26.00;73.30;;;;;;5091272;28;20624;-88
2022/06/03 12:30:33;;;;;;;2.30;2.17;;;26.00;72.50;;;;;;5102561;28;21029;-87
2022/06/03 12:33:03;;;;;;;2.50;2.33;;;25.90;72.70;;;;;;5092176;28;20719;-88
2022/06/03 12:35:55;;;;;;;2.53;2.33;;;25.50;73.50;;;;;;5097688;28;20649;-86
2022/06/03 12:38:50;;;;;;;2.90;2.70;;;25.50;74.30;;;;;;5104193;28;21239;-86
2022/06/03 12:41:54;;;;;;;2.80;2.60;;;25.50;73.80;;;;;;5103958;28;20683;-88
2022/06/03 12:44:46;;;;;;;2.77;2.43;;;25.50;74.30;;;;;;5093366;28;20628;-85
2022/06/03 12:47:42;;;;;;;2.77;2.57;;;25.50;75.80;;;;;;5091179;28;20616;-86
2022/06/03 12:50:35;;;;;;;2.40;2.20;;;25.50;77.90;;;;;;5099528;28;22089;-86
2022/06/03 12:53:38;;;;;;;2.60;2.40;;;25.50;73.50;;;;;;5104337;28;20643;-86
2022/06/03 12:56:10;;;;;;;2.20;2.03;;;25.50;74.70;;;;;;5098013;28;20697;-86
2022/06/03 12:58:53;;;;;;;4.40;2.70;;;25.30;79.00;;;;;;5102533;28;20623;-86
2022/06/03 13:01:41;;;;;;;2.40;2.20;;;25.10;78.50;;;;;;5098996;28;20691;-87
2022/06/03 13:05:07;;;;;;;2.60;2.50;;;25.00;81.70;;;;;;5102853;28;21038;-88
2022/06/03 13:07:36;;;;;;;2.97;2.77;;;24.80;85.00;;;;;;5047185;28;20725;-87
2022/06/03 13:10:33;;;;;;;2.80;2.37;;;24.70;85.50;;;;;;5046298;28;21044;-87
2022/06/03 13:13:23;;;;;;;2.70;2.50;;;24.80;84.90;;;;;;5081632;28;20718;-88
2022/06/03 13:15:52;;;;;;;2.77;2.57;;;24.80;86.50;;;;;;5099244;28;20634;-87
2022/06/03 13:18:40;;;;;;;3.40;2.70;;;24.80;85.40;;;;;;5096366;28;20624;-87
2022/06/03 13:21:18;;;;;;;2.40;2.20;;;24.80;82.70;;;;;;5100480;28;20628;-87
2022/06/03 13:23:58;;;;;;;2.90;2.70;;;24.70;83.20;;;;;;5099637;28;20624;-88
2022/06/03 13:26:52;;;;;;;3.67;3.37;;;24.80;85.00;;;;;;5099334;28;20659;-86
2022/06/03 13:30:04;;;;;;;2.80;2.60;;;24.60;83.10;;;;;;5106325;28;20658;-88
2022/06/03 13:32:52;;;;;;;2.67;2.47;;;24.60;85.20;;;;;;5094546;28;20624;-89
2022/06/03 13:35:25;;;;;;;3.17;2.87;;;24.40;87.60;;;;;;5102207;28;20638;-87
2022/06/03 13:38:14;;;;;;;3.43;3.20;;;24.30;86.10;;;;;;5108035;28;20724;-89
2022/06/03 13:42:57;;;;;;;2.70;2.50;;;24.30;84.90;;;;;;5107030;28;20623;-86
2022/06/03 13:43:27;;;;;;;3.47;3.17;;;24.20;86.10;;;;;;5099763;28;20636;-87
2022/06/03 13:46:10;;;;;;;3.33;3.10;;;24.00;86.50;;;;;;5088035;28;20592;-85
2022/06/03 13:48:55;;;;;;;2.90;2.70;;;24.00;86.20;;;;;;5105262;28;20274;-87
2022/06/03 13:51:38;;;;;;;2.63;2.43;;;24.10;87.50;;;;;;5103645;28;20651;-86
2022/06/03 13:54:18;;;;;;;3.23;3.03;;;24.20;86.50;;;;;;5108456;28;20743;-87
2022/06/03 13:56:54;;;;;;;2.70;2.50;;;24.10;87.60;;;;;;5100363;28;20631;-88
2022/06/03 13:59:21;;;;;;;3.03;2.77;;;24.00;90.80;;;;;;5097835;28;20730;-88
2022/06/03 14:01:53;;;;;;;3.53;3.23;;;24.00;93.40;;;;;;5092891;28;20663;-89
2022/06/03 14:04:24;;;;;;;3.03;2.80;;;23.90;94.50;;;;;;5106632;28;20619;-88
2022/06/03 14:06:58;;;;;;;3.30;3.10;;;23.90;94.70;;;;;;5110524;27;20655;-88
2022/06/03 14:09:31;;;;;;;3.20;2.90;;;23.10;98.10;;;;;;5105715;28;21191;-87
2022/06/03 14:12:17;;;;;;;3.30;3.00;;;23.50;96.90;;;;;;5112126;28;20669;-88
2022/06/03 14:14:49;;;;;;;2.87;2.67;;;23.60;93.00;;;;;;5094948;28;20623;-86
2022/06/03 14:17:21;;;;;;;3.00;2.67;;;23.50;93.30;;;;;;5103626;28;20640;-88
2022/06/03 14:19:52;;;;;;;3.13;2.93;;;23.50;93.80;;;;;;5110772;28;20668;-88
2022/06/03 14:22:30;;;;;;;2.93;2.73;;;23.40;92.40;;;;;;5104685;28;20758;-88
2022/06/03 14:25:10;;;;;;;2.97;2.77;;;23.40;93.60;;;;;;5110630;28;20615;-88
2022/06/03 14:27:41;;;;;;;3.10;2.80;;;23.30;93.90;;;;;;5111632;28;21279;-88
2022/06/03 14:30:17;;;;;;;3.90;3.60;;;23.20;93.50;;;;;;5108817;28;20981;-87
2022/06/03 14:32:49;;;;;;;3.13;2.93;;;23.20;92.70;;;;;;5102118;28;20681;-87
2022/06/03 14:35:33;;;;;;;3.30;3.00;;;23.30;92.00;;;;;;5104196;28;21222;-87
2022/06/03 14:38:08;;;;;;;3.57;3.27;;;23.50;93.90;;;;;;5106451;28;20635;-85
2022/06/03 14:40:39;;;;;;;3.30;3.00;;;23.60;91.60;;;;;;5097425;28;21032;-88